sensor_id;sensor_type;location;lat;lon;timestamp;P1;durP1;ratioP1;P2;durP2;ratioP2
22318;SDS011;11327;52.334;9.506;2023-01-25T00:02:53;15.75;;;10.05;;
22318;SDS011;11327;52.334;9.506;2023-01-25T00:06:13;14.00;;;9.38;;
22318;SDS011;11327;52.334;9.506;2023-01-25T00:09:34;16.82;;;9.95;;
22318;SDS011;11327;52.334;9.506;2023-01-25T00:12:55;14.63;;;9.13;;
22318;SDS011;11327;52.334;9.506;2023-01-25T00:16:16;14.50;;;9.50;;
22318;SDS011;11327;52.334;9.506;2023-01-25T00:19:36;15.25;;;8.88;;
22318;SDS011;11327;52.334;9.506;2023-01-25T00:22:57;13.30;;;8.80;;
22318;SDS011;11327;52.334;9.506;2023-01-25T00:26:18;13.83;;;8.40;;
22318;SDS011;11327;52.334;9.506;2023-01-25T00:29:39;13.75;;;8.78;;
22318;SDS011;11327;52.334;9.506;2023-01-25T00:36:40;14.75;;;9.55;;
22318;SDS011;11327;52.334;9.506;2023-01-25T00:40:01;16.23;;;10.08;;
22318;SDS011;11327;52.334;9.506;2023-01-25T00:43:21;16.60;;;9.78;;
22318;SDS011;11327;52.334;9.506;2023-01-25T00:46:42;14.93;;;9.88;;
22318;SDS011;11327;52.334;9.506;2023-01-25T00:50:04;15.55;;;9.48;;
22318;SDS011;11327;52.334;9.506;2023-01-25T00:53:26;15.90;;;10.40;;
22318;SDS011;11327;52.334;9.506;2023-01-25T00:56:46;18.20;;;10.88;;
22318;SDS011;11327;52.334;9.506;2023-01-25T01:00:08;19.02;;;11.40;;
22318;SDS011;11327;52.334;9.506;2023-01-25T01:03:29;19.92;;;11.75;;
22318;SDS011;11327;52.334;9.506;2023-01-25T01:06:51;19.10;;;11.38;;
22318;SDS011;11327;52.334;9.506;2023-01-25T01:10:13;19.23;;;11.83;;
22318;SDS011;11327;52.334;9.506;2023-01-25T01:17:16;21.12;;;11.25;;
22318;SDS011;11327;52.334;9.506;2023-01-25T01:20:37;18.65;;;10.95;;
22318;SDS011;11327;52.334;9.506;2023-01-25T01:23:58;20.77;;;11.50;;
22318;SDS011;11327;52.334;9.506;2023-01-25T01:27:18;20.08;;;11.65;;
22318;SDS011;11327;52.334;9.506;2023-01-25T01:30:39;18.23;;;11.33;;
22318;SDS011;11327;52.334;9.506;2023-01-25T01:34:00;20.00;;;11.80;;
22318;SDS011;11327;52.334;9.506;2023-01-25T01:37:21;15.60;;;9.30;;
22318;SDS011;11327;52.334;9.506;2023-01-25T01:40:45;14.28;;;9.08;;
22318;SDS011;11327;52.334;9.506;2023-01-25T01:44:12;16.15;;;9.53;;
22318;SDS011;11327;52.334;9.506;2023-01-25T01:47:37;15.30;;;8.83;;
22318;SDS011;11327;52.334;9.506;2023-01-25T01:51:00;15.05;;;8.73;;
22318;SDS011;11327;52.334;9.506;2023-01-25T01:54:27;13.53;;;8.63;;
22318;SDS011;11327;52.334;9.506;2023-01-25T01:57:51;14.58;;;8.00;;
22318;SDS011;11327;52.334;9.506;2023-01-25T02:01:15;14.03;;;8.30;;
22318;SDS011;11327;52.334;9.506;2023-01-25T02:04:36;14.75;;;8.90;;
22318;SDS011;11327;52.334;9.506;2023-01-25T02:07:57;14.87;;;9.40;;
22318;SDS011;11327;52.334;9.506;2023-01-25T02:11:19;14.45;;;8.95;;
22318;SDS011;11327;52.334;9.506;2023-01-25T02:14:43;15.25;;;8.88;;
22318;SDS011;11327;52.334;9.506;2023-01-25T02:18:08;14.00;;;8.55;;
22318;SDS011;11327;52.334;9.506;2023-01-25T02:21:32;13.65;;;8.45;;
22318;SDS011;11327;52.334;9.506;2023-01-25T02:25:02;15.48;;;8.85;;
22318;SDS011;11327;52.334;9.506;2023-01-25T02:28:25;16.85;;;9.58;;
22318;SDS011;11327;52.334;9.506;2023-01-25T02:32:03;18.15;;;9.38;;
22318;SDS011;11327;52.334;9.506;2023-01-25T02:36:26;16.95;;;10.13;;
22318;SDS011;11327;52.334;9.506;2023-01-25T02:39:03;16.13;;;9.93;;
22318;SDS011;11327;52.334;9.506;2023-01-25T02:42:29;15.15;;;9.35;;
22318;SDS011;11327;52.334;9.506;2023-01-25T02:45:51;16.65;;;9.60;;
22318;SDS011;11327;52.334;9.506;2023-01-25T02:49:14;16.17;;;9.70;;
22318;SDS011;11327;52.334;9.506;2023-01-25T02:52:35;13.18;;;8.30;;
22318;SDS011;11327;52.334;9.506;2023-01-25T02:55:56;14.78;;;8.90;;
22318;SDS011;11327;52.334;9.506;2023-01-25T02:59:17;14.83;;;8.70;;
22318;SDS011;11327;52.334;9.506;2023-01-25T03:02:38;16.07;;;8.53;;
22318;SDS011;11327;52.334;9.506;2023-01-25T03:05:59;14.87;;;8.38;;
22318;SDS011;11327;52.334;9.506;2023-01-25T03:09:20;16.23;;;9.15;;
22318;SDS011;11327;52.334;9.506;2023-01-25T03:12:40;17.87;;;9.93;;
22318;SDS011;11327;52.334;9.506;2023-01-25T03:16:06;15.10;;;8.58;;
22318;SDS011;11327;52.334;9.506;2023-01-25T03:19:28;18.12;;;9.80;;
22318;SDS011;11327;52.334;9.506;2023-01-25T03:22:49;14.70;;;8.58;;
22318;SDS011;11327;52.334;9.506;2023-01-25T03:29:39;15.78;;;9.30;;
22318;SDS011;11327;52.334;9.506;2023-01-25T03:33:01;16.30;;;9.20;;
22318;SDS011;11327;52.334;9.506;2023-01-25T03:36:21;18.20;;;9.80;;
22318;SDS011;11327;52.334;9.506;2023-01-25T03:39:42;16.85;;;9.50;;
22318;SDS011;11327;52.334;9.506;2023-01-25T03:43:03;18.07;;;10.23;;
22318;SDS011;11327;52.334;9.506;2023-01-25T03:46:23;19.30;;;9.68;;
22318;SDS011;11327;52.334;9.506;2023-01-25T03:49:44;16.05;;;9.18;;
22318;SDS011;11327;52.334;9.506;2023-01-25T03:53:10;16.12;;;8.88;;
22318;SDS011;11327;52.334;9.506;2023-01-25T03:56:32;15.80;;;8.75;;
22318;SDS011;11327;52.334;9.506;2023-01-25T03:59:52;14.47;;;8.78;;
22318;SDS011;11327;52.334;9.506;2023-01-25T04:03:13;15.60;;;9.28;;
22318;SDS011;11327;52.334;9.506;2023-01-25T04:06:35;15.05;;;8.90;;
22318;SDS011;11327;52.334;9.506;2023-01-25T04:09:55;17.67;;;9.08;;
22318;SDS011;11327;52.334;9.506;2023-01-25T04:13:16;17.05;;;9.03;;
22318;SDS011;11327;52.334;9.506;2023-01-25T04:16:39;16.67;;;9.78;;
22318;SDS011;11327;52.334;9.506;2023-01-25T04:19:59;17.90;;;9.18;;
22318;SDS011;11327;52.334;9.506;2023-01-25T04:23:20;21.00;;;10.13;;
22318;SDS011;11327;52.334;9.506;2023-01-25T04:26:42;19.10;;;10.85;;
22318;SDS011;11327;52.334;9.506;2023-01-25T04:30:03;19.67;;;11.60;;
22318;SDS011;11327;52.334;9.506;2023-01-25T04:33:24;14.60;;;8.38;;
22318;SDS011;11327;52.334;9.506;2023-01-25T04:36:46;16.57;;;9.23;;
22318;SDS011;11327;52.334;9.506;2023-01-25T04:40:07;17.40;;;9.73;;
22318;SDS011;11327;52.334;9.506;2023-01-25T04:43:29;17.50;;;9.55;;
22318;SDS011;11327;52.334;9.506;2023-01-25T04:46:49;20.35;;;9.93;;
22318;SDS011;11327;52.334;9.506;2023-01-25T04:50:10;16.48;;;9.08;;
22318;SDS011;11327;52.334;9.506;2023-01-25T04:53:31;19.15;;;10.63;;
22318;SDS011;11327;52.334;9.506;2023-01-25T04:56:52;19.40;;;11.15;;
22318;SDS011;11327;52.334;9.506;2023-01-25T05:00:12;19.12;;;10.05;;
22318;SDS011;11327;52.334;9.506;2023-01-25T05:03:34;17.00;;;9.58;;
22318;SDS011;11327;52.334;9.506;2023-01-25T05:06:54;18.07;;;10.15;;
22318;SDS011;11327;52.334;9.506;2023-01-25T05:10:15;18.27;;;10.15;;
22318;SDS011;11327;52.334;9.506;2023-01-25T05:13:36;18.67;;;10.78;;
22318;SDS011;11327;52.334;9.506;2023-01-25T05:16:57;19.90;;;10.30;;
22318;SDS011;11327;52.334;9.506;2023-01-25T05:20:18;21.27;;;11.33;;
22318;SDS011;11327;52.334;9.506;2023-01-25T05:23:38;19.70;;;10.50;;
22318;SDS011;11327;52.334;9.506;2023-01-25T05:26:59;19.55;;;11.00;;
22318;SDS011;11327;52.334;9.506;2023-01-25T05:30:25;19.77;;;10.55;;
22318;SDS011;11327;52.334;9.506;2023-01-25T05:33:45;17.35;;;10.13;;
22318;SDS011;11327;52.334;9.506;2023-01-25T05:37:06;17.15;;;8.88;;
22318;SDS011;11327;52.334;9.506;2023-01-25T05:40:28;15.20;;;9.28;;
22318;SDS011;11327;52.334;9.506;2023-01-25T05:43:49;16.60;;;9.45;;
22318;SDS011;11327;52.334;9.506;2023-01-25T05:47:13;17.85;;;9.73;;
22318;SDS011;11327;52.334;9.506;2023-01-25T05:50:35;18.45;;;10.13;;
22318;SDS011;11327;52.334;9.506;2023-01-25T05:53:56;17.60;;;9.98;;
22318;SDS011;11327;52.334;9.506;2023-01-25T05:57:17;18.23;;;10.15;;
22318;SDS011;11327;52.334;9.506;2023-01-25T06:00:38;19.15;;;10.28;;
22318;SDS011;11327;52.334;9.506;2023-01-25T06:03:58;18.75;;;10.38;;
22318;SDS011;11327;52.334;9.506;2023-01-25T06:07:19;18.67;;;10.03;;
22318;SDS011;11327;52.334;9.506;2023-01-25T06:10:40;17.90;;;10.48;;
22318;SDS011;11327;52.334;9.506;2023-01-25T06:14:01;24.35;;;12.33;;
22318;SDS011;11327;52.334;9.506;2023-01-25T06:17:21;19.07;;;10.90;;
22318;SDS011;11327;52.334;9.506;2023-01-25T06:20:42;21.33;;;10.80;;
22318;SDS011;11327;52.334;9.506;2023-01-25T06:24:03;19.17;;;10.38;;
22318;SDS011;11327;52.334;9.506;2023-01-25T06:27:24;19.45;;;10.75;;
22318;SDS011;11327;52.334;9.506;2023-01-25T06:30:45;19.45;;;10.25;;
22318;SDS011;11327;52.334;9.506;2023-01-25T06:34:05;19.10;;;10.08;;
22318;SDS011;11327;52.334;9.506;2023-01-25T06:37:27;18.32;;;10.40;;
22318;SDS011;11327;52.334;9.506;2023-01-25T06:40:48;18.15;;;10.20;;
22318;SDS011;11327;52.334;9.506;2023-01-25T06:44:09;18.05;;;10.15;;
22318;SDS011;11327;52.334;9.506;2023-01-25T06:47:29;19.35;;;10.48;;
22318;SDS011;11327;52.334;9.506;2023-01-25T06:50:54;18.98;;;10.50;;
22318;SDS011;11327;52.334;9.506;2023-01-25T06:54:16;20.05;;;10.55;;
22318;SDS011;11327;52.334;9.506;2023-01-25T06:57:36;19.80;;;10.90;;
22318;SDS011;11327;52.334;9.506;2023-01-25T07:01:09;20.27;;;11.28;;
22318;SDS011;11327;52.334;9.506;2023-01-25T07:04:33;22.33;;;12.43;;
22318;SDS011;11327;52.334;9.506;2023-01-25T07:07:54;22.25;;;12.18;;
22318;SDS011;11327;52.334;9.506;2023-01-25T07:11:15;21.82;;;11.48;;
22318;SDS011;11327;52.334;9.506;2023-01-25T07:14:38;22.50;;;12.03;;
22318;SDS011;11327;52.334;9.506;2023-01-25T07:17:58;21.97;;;12.37;;
22318;SDS011;11327;52.334;9.506;2023-01-25T07:21:20;24.35;;;13.22;;
22318;SDS011;11327;52.334;9.506;2023-01-25T07:24:42;20.80;;;11.68;;
22318;SDS011;11327;52.334;9.506;2023-01-25T07:28:04;24.52;;;12.60;;
22318;SDS011;11327;52.334;9.506;2023-01-25T07:31:25;26.80;;;14.03;;
22318;SDS011;11327;52.334;9.506;2023-01-25T07:34:46;25.48;;;13.13;;
22318;SDS011;11327;52.334;9.506;2023-01-25T07:38:06;21.75;;;11.28;;
22318;SDS011;11327;52.334;9.506;2023-01-25T07:41:27;23.50;;;11.83;;
22318;SDS011;11327;52.334;9.506;2023-01-25T07:44:48;19.92;;;10.72;;
22318;SDS011;11327;52.334;9.506;2023-01-25T07:48:08;21.45;;;11.08;;
22318;SDS011;11327;52.334;9.506;2023-01-25T07:51:30;22.10;;;11.83;;
22318;SDS011;11327;52.334;9.506;2023-01-25T07:54:51;18.32;;;10.40;;
22318;SDS011;11327;52.334;9.506;2023-01-25T07:58:11;19.07;;;10.40;;
22318;SDS011;11327;52.334;9.506;2023-01-25T08:01:32;19.40;;;9.83;;
22318;SDS011;11327;52.334;9.506;2023-01-25T08:04:54;19.85;;;10.65;;
22318;SDS011;11327;52.334;9.506;2023-01-25T08:08:15;18.87;;;9.85;;
22318;SDS011;11327;52.334;9.506;2023-01-25T08:11:35;21.10;;;10.90;;
22318;SDS011;11327;52.334;9.506;2023-01-25T08:14:56;20.80;;;10.98;;
22318;SDS011;11327;52.334;9.506;2023-01-25T08:18:17;19.42;;;10.03;;
22318;SDS011;11327;52.334;9.506;2023-01-25T08:21:37;22.37;;;11.65;;
22318;SDS011;11327;52.334;9.506;2023-01-25T08:24:58;21.70;;;11.55;;
22318;SDS011;11327;52.334;9.506;2023-01-25T08:28:20;25.52;;;12.25;;
22318;SDS011;11327;52.334;9.506;2023-01-25T08:31:41;22.25;;;11.63;;
22318;SDS011;11327;52.334;9.506;2023-01-25T08:35:05;25.97;;;12.75;;
22318;SDS011;11327;52.334;9.506;2023-01-25T08:38:27;23.10;;;12.35;;
22318;SDS011;11327;52.334;9.506;2023-01-25T08:41:48;23.50;;;12.80;;
22318;SDS011;11327;52.334;9.506;2023-01-25T08:45:09;27.10;;;14.05;;
22318;SDS011;11327;52.334;9.506;2023-01-25T08:48:30;29.37;;;14.75;;
22318;SDS011;11327;52.334;9.506;2023-01-25T08:51:50;26.62;;;14.30;;
22318;SDS011;11327;52.334;9.506;2023-01-25T08:55:12;28.87;;;14.90;;
22318;SDS011;11327;52.334;9.506;2023-01-25T08:58:32;26.42;;;13.18;;
22318;SDS011;11327;52.334;9.506;2023-01-25T09:01:54;26.45;;;12.70;;
22318;SDS011;11327;52.334;9.506;2023-01-25T09:05:14;27.75;;;13.28;;
22318;SDS011;11327;52.334;9.506;2023-01-25T09:08:35;25.95;;;12.45;;
22318;SDS011;11327;52.334;9.506;2023-01-25T09:11:59;24.18;;;12.43;;
22318;SDS011;11327;52.334;9.506;2023-01-25T09:15:20;23.65;;;12.58;;
22318;SDS011;11327;52.334;9.506;2023-01-25T09:18:42;27.32;;;12.60;;
22318;SDS011;11327;52.334;9.506;2023-01-25T09:22:04;26.90;;;13.08;;
22318;SDS011;11327;52.334;9.506;2023-01-25T09:25:24;21.77;;;11.75;;
22318;SDS011;11327;52.334;9.506;2023-01-25T09:28:46;23.70;;;11.95;;
22318;SDS011;11327;52.334;9.506;2023-01-25T09:32:08;21.80;;;10.85;;
22318;SDS011;11327;52.334;9.506;2023-01-25T09:35:29;21.50;;;10.95;;
22318;SDS011;11327;52.334;9.506;2023-01-25T09:38:50;26.52;;;12.10;;
22318;SDS011;11327;52.334;9.506;2023-01-25T09:45:58;24.82;;;12.10;;
22318;SDS011;11327;52.334;9.506;2023-01-25T09:56:22;20.75;;;10.40;;
22318;SDS011;11327;52.334;9.506;2023-01-25T09:59:46;21.48;;;11.12;;
22318;SDS011;11327;52.334;9.506;2023-01-25T10:03:25;24.35;;;12.15;;
22318;SDS011;11327;52.334;9.506;2023-01-25T10:06:54;19.27;;;9.90;;
22318;SDS011;11327;52.334;9.506;2023-01-25T10:10:41;20.32;;;10.23;;
22318;SDS011;11327;52.334;9.506;2023-01-25T10:14:01;19.35;;;9.60;;
22318;SDS011;11327;52.334;9.506;2023-01-25T10:17:27;18.15;;;9.40;;
22318;SDS011;11327;52.334;9.506;2023-01-25T10:20:57;20.12;;;10.58;;
22318;SDS011;11327;52.334;9.506;2023-01-25T10:28:15;19.15;;;10.00;;
22318;SDS011;11327;52.334;9.506;2023-01-25T10:31:41;20.60;;;10.65;;
22318;SDS011;11327;52.334;9.506;2023-01-25T10:35:09;20.02;;;10.48;;
22318;SDS011;11327;52.334;9.506;2023-01-25T10:38:35;18.90;;;9.88;;
22318;SDS011;11327;52.334;9.506;2023-01-25T10:41:59;20.08;;;10.43;;
22318;SDS011;11327;52.334;9.506;2023-01-25T10:45:22;17.20;;;9.38;;
22318;SDS011;11327;52.334;9.506;2023-01-25T10:48:43;18.02;;;10.03;;
22318;SDS011;11327;52.334;9.506;2023-01-25T10:52:11;19.32;;;10.13;;
22318;SDS011;11327;52.334;9.506;2023-01-25T10:55:52;20.85;;;10.70;;
22318;SDS011;11327;52.334;9.506;2023-01-25T10:59:17;20.00;;;10.32;;
22318;SDS011;11327;52.334;9.506;2023-01-25T11:02:44;19.20;;;9.93;;
22318;SDS011;11327;52.334;9.506;2023-01-25T11:06:07;20.68;;;9.90;;
22318;SDS011;11327;52.334;9.506;2023-01-25T11:09:39;21.52;;;10.48;;
22318;SDS011;11327;52.334;9.506;2023-01-25T11:13:16;18.40;;;10.18;;
22318;SDS011;11327;52.334;9.506;2023-01-25T11:16:42;18.23;;;9.43;;
22318;SDS011;11327;52.334;9.506;2023-01-25T11:20:09;20.27;;;10.30;;
22318;SDS011;11327;52.334;9.506;2023-01-25T11:23:32;18.90;;;10.43;;
22318;SDS011;11327;52.334;9.506;2023-01-25T11:30:41;15.83;;;8.58;;
22318;SDS011;11327;52.334;9.506;2023-01-25T11:34:06;15.03;;;8.25;;
22318;SDS011;11327;52.334;9.506;2023-01-25T11:37:29;17.75;;;9.60;;
22318;SDS011;11327;52.334;9.506;2023-01-25T11:52:18;18.50;;;9.23;;
22318;SDS011;11327;52.334;9.506;2023-01-25T11:55:44;16.52;;;9.68;;
22318;SDS011;11327;52.334;9.506;2023-01-25T11:59:10;16.42;;;9.38;;
22318;SDS011;11327;52.334;9.506;2023-01-25T12:10:03;17.55;;;8.80;;
22318;SDS011;11327;52.334;9.506;2023-01-25T12:13:47;16.48;;;9.00;;
22318;SDS011;11327;52.334;9.506;2023-01-25T12:28:01;16.80;;;7.85;;
22318;SDS011;11327;52.334;9.506;2023-01-25T12:31:36;13.95;;;7.05;;
22318;SDS011;11327;52.334;9.506;2023-01-25T12:35:02;17.95;;;8.13;;
22318;SDS011;11327;52.334;9.506;2023-01-25T12:38:25;15.53;;;7.62;;
22318;SDS011;11327;52.334;9.506;2023-01-25T12:41:57;16.23;;;7.95;;
22318;SDS011;11327;52.334;9.506;2023-01-25T12:45:23;15.95;;;8.13;;
22318;SDS011;11327;52.334;9.506;2023-01-25T12:48:49;17.27;;;7.90;;
22318;SDS011;11327;52.334;9.506;2023-01-25T12:52:26;16.27;;;8.08;;
22318;SDS011;11327;52.334;9.506;2023-01-25T12:55:47;16.02;;;7.55;;
22318;SDS011;11327;52.334;9.506;2023-01-25T12:59:26;16.57;;;8.10;;
22318;SDS011;11327;52.334;9.506;2023-01-25T13:03:01;17.10;;;7.65;;
22318;SDS011;11327;52.334;9.506;2023-01-25T13:06:42;16.82;;;8.25;;
22318;SDS011;11327;52.334;9.506;2023-01-25T13:10:17;14.53;;;7.28;;
22318;SDS011;11327;52.334;9.506;2023-01-25T13:13:39;15.53;;;7.42;;
22318;SDS011;11327;52.334;9.506;2023-01-25T13:24:16;16.23;;;7.67;;
22318;SDS011;11327;52.334;9.506;2023-01-25T13:27:39;16.12;;;7.70;;
22318;SDS011;11327;52.334;9.506;2023-01-25T13:31:00;13.80;;;7.35;;
22318;SDS011;11327;52.334;9.506;2023-01-25T13:35:21;15.13;;;7.72;;
22318;SDS011;11327;52.334;9.506;2023-01-25T13:38:00;17.07;;;8.10;;
22318;SDS011;11327;52.334;9.506;2023-01-25T13:41:55;16.42;;;8.83;;
22318;SDS011;11327;52.334;9.506;2023-01-25T13:45:15;18.32;;;9.75;;
22318;SDS011;11327;52.334;9.506;2023-01-25T13:48:43;17.32;;;8.48;;
22318;SDS011;11327;52.334;9.506;2023-01-25T13:52:06;18.52;;;8.83;;
22318;SDS011;11327;52.334;9.506;2023-01-25T13:55:28;18.40;;;9.50;;
22318;SDS011;11327;52.334;9.506;2023-01-25T13:58:51;17.87;;;9.18;;
22318;SDS011;11327;52.334;9.506;2023-01-25T14:02:24;18.40;;;9.18;;
22318;SDS011;11327;52.334;9.506;2023-01-25T14:05:55;18.32;;;9.60;;
22318;SDS011;11327;52.334;9.506;2023-01-25T14:09:18;19.20;;;10.55;;
22318;SDS011;11327;52.334;9.506;2023-01-25T14:12:40;20.23;;;10.68;;
22318;SDS011;11327;52.334;9.506;2023-01-25T14:16:02;17.25;;;9.18;;
22318;SDS011;11327;52.334;9.506;2023-01-25T14:19:26;18.20;;;8.45;;
22318;SDS011;11327;52.334;9.506;2023-01-25T14:22:49;18.77;;;9.43;;
22318;SDS011;11327;52.334;9.506;2023-01-25T14:26:15;20.30;;;9.90;;
22318;SDS011;11327;52.334;9.506;2023-01-25T14:29:38;20.08;;;10.25;;
22318;SDS011;11327;52.334;9.506;2023-01-25T14:33:00;20.60;;;9.43;;
22318;SDS011;11327;52.334;9.506;2023-01-25T14:36:28;20.32;;;9.78;;
22318;SDS011;11327;52.334;9.506;2023-01-25T14:39:50;18.07;;;9.13;;
22318;SDS011;11327;52.334;9.506;2023-01-25T14:43:11;19.65;;;9.65;;
22318;SDS011;11327;52.334;9.506;2023-01-25T14:46:34;22.98;;;10.78;;
22318;SDS011;11327;52.334;9.506;2023-01-25T14:54:03;20.10;;;10.13;;
22318;SDS011;11327;52.334;9.506;2023-01-25T15:00:57;19.62;;;9.63;;
22318;SDS011;11327;52.334;9.506;2023-01-25T15:04:20;20.05;;;9.63;;
22318;SDS011;11327;52.334;9.506;2023-01-25T15:08:15;19.35;;;9.93;;
22318;SDS011;11327;52.334;9.506;2023-01-25T15:11:27;16.70;;;9.13;;
22318;SDS011;11327;52.334;9.506;2023-01-25T15:15:15;19.82;;;9.53;;
22318;SDS011;11327;52.334;9.506;2023-01-25T15:22:09;20.08;;;10.23;;
22318;SDS011;11327;52.334;9.506;2023-01-25T15:25:30;20.92;;;10.78;;
22318;SDS011;11327;52.334;9.506;2023-01-25T15:28:52;19.77;;;9.83;;
22318;SDS011;11327;52.334;9.506;2023-01-25T15:32:17;23.07;;;12.35;;
22318;SDS011;11327;52.334;9.506;2023-01-25T15:35:39;23.38;;;11.85;;
22318;SDS011;11327;52.334;9.506;2023-01-25T15:39:02;21.27;;;10.18;;
22318;SDS011;11327;52.334;9.506;2023-01-25T15:42:23;20.82;;;10.98;;
22318;SDS011;11327;52.334;9.506;2023-01-25T15:45:44;22.90;;;11.57;;
22318;SDS011;11327;52.334;9.506;2023-01-25T15:49:09;26.87;;;13.25;;
22318;SDS011;11327;52.334;9.506;2023-01-25T15:52:32;25.52;;;13.05;;
22318;SDS011;11327;52.334;9.506;2023-01-25T15:55:53;21.27;;;10.35;;
22318;SDS011;11327;52.334;9.506;2023-01-25T15:59:17;22.48;;;10.68;;
22318;SDS011;11327;52.334;9.506;2023-01-25T16:02:38;26.30;;;12.15;;
22318;SDS011;11327;52.334;9.506;2023-01-25T16:06:03;25.27;;;12.60;;
22318;SDS011;11327;52.334;9.506;2023-01-25T16:09:24;23.05;;;11.90;;
22318;SDS011;11327;52.334;9.506;2023-01-25T16:12:49;24.40;;;15.53;;
22318;SDS011;11327;52.334;9.506;2023-01-25T16:16:15;25.10;;;13.35;;
22318;SDS011;11327;52.334;9.506;2023-01-25T16:19:37;26.12;;;14.25;;
22318;SDS011;11327;52.334;9.506;2023-01-25T16:22:58;29.42;;;12.98;;
22318;SDS011;11327;52.334;9.506;2023-01-25T16:26:19;25.92;;;13.28;;
22318;SDS011;11327;52.334;9.506;2023-01-25T16:29:42;29.70;;;14.60;;
22318;SDS011;11327;52.334;9.506;2023-01-25T16:33:03;30.65;;;15.38;;
22318;SDS011;11327;52.334;9.506;2023-01-25T16:36:24;26.02;;;13.28;;
22318;SDS011;11327;52.334;9.506;2023-01-25T16:39:44;23.65;;;11.00;;
22318;SDS011;11327;52.334;9.506;2023-01-25T16:43:05;25.20;;;12.50;;
22318;SDS011;11327;52.334;9.506;2023-01-25T16:46:26;24.37;;;12.37;;
22318;SDS011;11327;52.334;9.506;2023-01-25T16:49:47;26.90;;;13.32;;
22318;SDS011;11327;52.334;9.506;2023-01-25T16:53:07;34.10;;;16.35;;
22318;SDS011;11327;52.334;9.506;2023-01-25T16:56:29;22.62;;;10.43;;
22318;SDS011;11327;52.334;9.506;2023-01-25T16:59:51;20.25;;;10.18;;
22318;SDS011;11327;52.334;9.506;2023-01-25T17:03:12;21.20;;;10.72;;
22318;SDS011;11327;52.334;9.506;2023-01-25T17:06:34;23.10;;;10.20;;
22318;SDS011;11327;52.334;9.506;2023-01-25T17:09:56;20.77;;;10.43;;
22318;SDS011;11327;52.334;9.506;2023-01-25T17:13:17;20.52;;;9.70;;
22318;SDS011;11327;52.334;9.506;2023-01-25T17:16:38;22.15;;;10.05;;
22318;SDS011;11327;52.334;9.506;2023-01-25T17:19:59;25.82;;;12.50;;
22318;SDS011;11327;52.334;9.506;2023-01-25T17:23:19;27.85;;;12.70;;
22318;SDS011;11327;52.334;9.506;2023-01-25T17:26:43;26.70;;;12.60;;
22318;SDS011;11327;52.334;9.506;2023-01-25T17:30:04;26.97;;;12.70;;
22318;SDS011;11327;52.334;9.506;2023-01-25T17:33:26;39.75;;;17.82;;
22318;SDS011;11327;52.334;9.506;2023-01-25T17:36:48;32.70;;;15.30;;
22318;SDS011;11327;52.334;9.506;2023-01-25T17:40:10;29.30;;;13.28;;
22318;SDS011;11327;52.334;9.506;2023-01-25T17:43:31;27.77;;;13.32;;
22318;SDS011;11327;52.334;9.506;2023-01-25T17:46:52;26.23;;;13.13;;
22318;SDS011;11327;52.334;9.506;2023-01-25T17:50:12;33.20;;;15.70;;
22318;SDS011;11327;52.334;9.506;2023-01-25T17:53:33;30.68;;;14.13;;
22318;SDS011;11327;52.334;9.506;2023-01-25T17:56:54;30.25;;;15.08;;
22318;SDS011;11327;52.334;9.506;2023-01-25T18:00:15;30.80;;;14.58;;
22318;SDS011;11327;52.334;9.506;2023-01-25T18:03:37;30.25;;;14.00;;
22318;SDS011;11327;52.334;9.506;2023-01-25T18:06:57;28.57;;;12.65;;
22318;SDS011;11327;52.334;9.506;2023-01-25T18:10:18;29.20;;;13.60;;
22318;SDS011;11327;52.334;9.506;2023-01-25T18:13:49;26.48;;;12.18;;
22318;SDS011;11327;52.334;9.506;2023-01-25T18:17:11;27.07;;;12.00;;
22318;SDS011;11327;52.334;9.506;2023-01-25T18:20:32;27.98;;;13.20;;
22318;SDS011;11327;52.334;9.506;2023-01-25T18:23:54;31.23;;;13.65;;
22318;SDS011;11327;52.334;9.506;2023-01-25T18:27:21;29.63;;;13.55;;
22318;SDS011;11327;52.334;9.506;2023-01-25T18:30:48;27.83;;;13.80;;
22318;SDS011;11327;52.334;9.506;2023-01-25T18:34:11;26.97;;;12.78;;
22318;SDS011;11327;52.334;9.506;2023-01-25T18:37:31;28.70;;;13.98;;
22318;SDS011;11327;52.334;9.506;2023-01-25T18:40:54;31.55;;;14.75;;
22318;SDS011;11327;52.334;9.506;2023-01-25T18:44:15;34.23;;;16.65;;
22318;SDS011;11327;52.334;9.506;2023-01-25T18:47:36;31.77;;;14.47;;
22318;SDS011;11327;52.334;9.506;2023-01-25T18:51:04;30.68;;;14.33;;
22318;SDS011;11327;52.334;9.506;2023-01-25T18:54:27;35.73;;;16.50;;
22318;SDS011;11327;52.334;9.506;2023-01-25T18:57:47;36.10;;;16.93;;
22318;SDS011;11327;52.334;9.506;2023-01-25T19:01:13;37.90;;;17.75;;
22318;SDS011;11327;52.334;9.506;2023-01-25T19:04:36;34.35;;;16.02;;
22318;SDS011;11327;52.334;9.506;2023-01-25T19:07:56;32.17;;;14.87;;
22318;SDS011;11327;52.334;9.506;2023-01-25T19:11:17;31.27;;;15.00;;
22318;SDS011;11327;52.334;9.506;2023-01-25T19:14:40;32.95;;;15.75;;
22318;SDS011;11327;52.334;9.506;2023-01-25T19:18:00;35.88;;;16.55;;
22318;SDS011;11327;52.334;9.506;2023-01-25T19:21:22;37.17;;;17.50;;
22318;SDS011;11327;52.334;9.506;2023-01-25T19:24:44;35.83;;;16.82;;
22318;SDS011;11327;52.334;9.506;2023-01-25T19:28:05;40.05;;;18.60;;
22318;SDS011;11327;52.334;9.506;2023-01-25T19:31:26;34.55;;;17.37;;
22318;SDS011;11327;52.334;9.506;2023-01-25T19:34:47;37.40;;;18.00;;
22318;SDS011;11327;52.334;9.506;2023-01-25T19:38:07;44.33;;;20.27;;
22318;SDS011;11327;52.334;9.506;2023-01-25T19:41:29;43.58;;;20.32;;
22318;SDS011;11327;52.334;9.506;2023-01-25T19:44:50;45.30;;;19.80;;
22318;SDS011;11327;52.334;9.506;2023-01-25T19:48:11;40.98;;;18.60;;
22318;SDS011;11327;52.334;9.506;2023-01-25T19:51:35;41.50;;;18.77;;
22318;SDS011;11327;52.334;9.506;2023-01-25T19:54:59;41.48;;;18.02;;
22318;SDS011;11327;52.334;9.506;2023-01-25T19:58:19;44.18;;;19.00;;
22318;SDS011;11327;52.334;9.506;2023-01-25T20:01:44;43.73;;;19.48;;
22318;SDS011;11327;52.334;9.506;2023-01-25T20:05:05;41.33;;;18.62;;
22318;SDS011;11327;52.334;9.506;2023-01-25T20:08:30;46.77;;;19.27;;
22318;SDS011;11327;52.334;9.506;2023-01-25T20:11:53;45.30;;;19.02;;
22318;SDS011;11327;52.334;9.506;2023-01-25T20:15:15;44.58;;;18.77;;
22318;SDS011;11327;52.334;9.506;2023-01-25T20:18:36;43.63;;;18.55;;
22318;SDS011;11327;52.334;9.506;2023-01-25T20:21:57;47.75;;;20.32;;
22318;SDS011;11327;52.334;9.506;2023-01-25T20:25:17;43.80;;;19.55;;
22318;SDS011;11327;52.334;9.506;2023-01-25T20:28:38;46.90;;;20.65;;
22318;SDS011;11327;52.334;9.506;2023-01-25T20:32:00;47.90;;;20.25;;
22318;SDS011;11327;52.334;9.506;2023-01-25T20:35:22;45.40;;;20.32;;
22318;SDS011;11327;52.334;9.506;2023-01-25T20:38:43;46.65;;;19.60;;
22318;SDS011;11327;52.334;9.506;2023-01-25T20:42:04;46.25;;;20.05;;
22318;SDS011;11327;52.334;9.506;2023-01-25T20:45:25;45.80;;;19.52;;
22318;SDS011;11327;52.334;9.506;2023-01-25T20:48:46;47.85;;;19.85;;
22318;SDS011;11327;52.334;9.506;2023-01-25T20:52:07;46.20;;;20.05;;
22318;SDS011;11327;52.334;9.506;2023-01-25T20:55:30;46.25;;;19.37;;
22318;SDS011;11327;52.334;9.506;2023-01-25T20:58:51;50.33;;;20.32;;
22318;SDS011;11327;52.334;9.506;2023-01-25T21:02:12;53.40;;;21.33;;
22318;SDS011;11327;52.334;9.506;2023-01-25T21:05:33;49.18;;;20.12;;
22318;SDS011;11327;52.334;9.506;2023-01-25T21:08:54;53.40;;;21.40;;
22318;SDS011;11327;52.334;9.506;2023-01-25T21:12:14;52.38;;;21.15;;